createdAt,value
2022-12-05T00:01:55.206Z,3.90
2022-12-05T00:04:25.055Z,3.90
2022-12-05T00:06:54.880Z,3.90
2022-12-05T00:18:22.875Z,3.90
2022-12-05T00:23:54.638Z,3.90
2022-12-05T00:26:21.921Z,3.90
2022-12-05T00:31:54.004Z,3.90
2022-12-05T00:34:24.995Z,3.90
2022-12-05T00:36:57.933Z,3.90
2022-12-05T00:42:31.911Z,3.90
2022-12-05T00:47:49.408Z,3.90
2022-12-05T00:50:19.906Z,3.90
2022-12-05T00:52:48.348Z,3.90
2022-12-05T01:03:48.117Z,3.90
2022-12-05T01:06:19.001Z,3.90
2022-12-05T01:08:48.879Z,3.90
2022-12-05T01:11:18.055Z,3.80
2022-12-05T01:14:15.017Z,3.90
2022-12-05T01:19:19.336Z,3.80
2022-12-05T01:21:47.143Z,3.80
2022-12-05T01:30:31.109Z,3.80
2022-12-05T01:45:16.028Z,3.90
2022-12-05T01:47:42.926Z,3.80
2022-12-05T01:59:32.160Z,3.80
2022-12-05T02:02:03.070Z,3.80
2022-12-05T02:04:30.575Z,3.80
2022-12-05T02:16:00.629Z,3.80
2022-12-05T02:18:27.280Z,3.80
2022-12-05T02:20:53.955Z,3.80
2022-12-05T02:23:58.268Z,3.80
2022-12-05T02:33:13.125Z,3.80
2022-12-05T02:36:28.091Z,3.80
2022-12-05T02:39:16.003Z,3.80
2022-12-05T02:42:02.132Z,3.80
2022-12-05T02:44:41.121Z,3.80
2022-12-05T02:47:40.194Z,3.90
2022-12-05T02:53:03.143Z,3.90
2022-12-05T02:58:34.318Z,3.90
2022-12-05T03:01:11.220Z,3.90
2022-12-05T03:03:42.188Z,3.90
2022-12-05T03:09:26.160Z,3.90
2022-12-05T03:15:48.052Z,3.90
2022-12-05T03:21:16.193Z,4.00
2022-12-05T03:23:51.144Z,4.00
2022-12-05T03:26:23.466Z,4.00
2022-12-05T03:38:22.370Z,4.10
2022-12-05T03:40:56.468Z,4.10
2022-12-05T03:43:42.204Z,4.10
2022-12-05T03:49:37.229Z,4.10
2022-12-05T03:55:26.297Z,4.10
2022-12-05T03:58:01.006Z,4.10
2022-12-05T04:00:31.485Z,4.10
2022-12-05T04:03:17.022Z,4.10
2022-12-05T04:05:55.959Z,4.20
2022-12-05T04:08:40.244Z,4.20
2022-12-05T04:11:17.178Z,4.20
2022-12-05T04:13:52.496Z,4.20
2022-12-05T04:16:52.913Z,4.20
2022-12-05T04:22:23.456Z,4.20
2022-12-05T04:28:32.998Z,4.30
2022-12-05T04:31:29.319Z,4.30
2022-12-05T04:34:06.987Z,4.30
2022-12-05T04:36:41.254Z,4.20
2022-12-05T04:39:18.245Z,4.20
2022-12-05T04:41:56.305Z,4.10
2022-12-05T04:44:39.405Z,4.10
2022-12-05T04:47:29.409Z,4.10
2022-12-05T04:50:00.573Z,4.10
2022-12-05T04:52:31.897Z,4.10
2022-12-05T05:09:41.772Z,4.10
2022-12-05T05:12:08.440Z,4.20
2022-12-05T05:23:09.044Z,4.20
2022-12-05T05:25:35.703Z,4.10
2022-12-05T05:28:02.387Z,4.10
2022-12-05T05:30:37.207Z,4.10
2022-12-05T05:33:07.714Z,4.10
2022-12-05T05:35:38.130Z,4.10
2022-12-05T05:38:06.530Z,4.10
2022-12-05T05:40:35.919Z,4.00
2022-12-05T05:43:04.247Z,4.10
2022-12-05T05:45:38.849Z,4.10
2022-12-05T05:48:12.763Z,4.00
2022-12-05T05:50:43.324Z,4.00
2022-12-05T05:53:38.186Z,4.10
2022-12-05T05:56:24.811Z,4.10
2022-12-05T05:59:02.989Z,4.10
2022-12-05T06:01:30.395Z,4.10
2022-12-05T06:04:00.891Z,4.20
2022-12-05T06:06:32.973Z,4.20
2022-12-05T06:09:05.313Z,4.20
2022-12-05T06:11:32.075Z,4.20
2022-12-05T06:14:02.789Z,4.20
2022-12-05T06:16:31.063Z,4.20
2022-12-05T06:18:59.251Z,4.30
2022-12-05T06:21:26.342Z,4.30
2022-12-05T06:23:53.786Z,4.30
2022-12-05T06:26:22.051Z,4.30
2022-12-05T06:28:53.221Z,4.30
2022-12-05T06:31:22.466Z,4.30
2022-12-05T06:33:49.558Z,4.30
2022-12-05T06:36:21.837Z,4.30
2022-12-05T06:38:48.593Z,4.30
2022-12-05T06:41:17.311Z,4.30
2022-12-05T06:43:44.177Z,4.30
2022-12-05T06:46:15.530Z,4.30
2022-12-05T06:48:45.507Z,4.30
2022-12-05T06:51:15.496Z,4.30
2022-12-05T06:53:42.764Z,4.30
2022-12-05T06:56:11.903Z,4.40
2022-12-05T06:58:40.489Z,4.40
2022-12-05T07:01:33.858Z,4.40
2022-12-05T07:04:25.472Z,4.30
2022-12-05T07:06:56.786Z,4.30
2022-12-05T07:09:43.629Z,4.30
2022-12-05T07:12:11.791Z,4.40
2022-12-05T07:14:47.438Z,4.40
2022-12-05T07:17:20.563Z,4.30
2022-12-05T07:19:48.773Z,4.30
2022-12-05T07:22:19.630Z,4.20
2022-12-05T07:24:50.650Z,4.30
2022-12-05T07:27:26.956Z,4.30
2022-12-05T07:29:54.744Z,4.30
2022-12-05T07:32:21.628Z,4.30
2022-12-05T07:34:55.206Z,4.30
2022-12-05T07:37:24.550Z,4.40
2022-12-05T07:39:54.341Z,4.30
2022-12-05T07:42:22.999Z,4.40
2022-12-05T07:44:49.749Z,4.40
2022-12-05T07:47:19.632Z,4.40
2022-12-05T07:49:46.305Z,4.40
2022-12-05T07:52:15.657Z,4.40
2022-12-05T07:54:46.614Z,4.40
2022-12-05T07:57:13.800Z,4.40
2022-12-05T07:59:40.448Z,4.40
2022-12-05T08:02:40.455Z,4.40
2022-12-05T08:05:10.665Z,4.40
2022-12-05T08:07:39.599Z,4.40
2022-12-05T08:10:10.654Z,4.50
2022-12-05T08:12:38.342Z,4.50
2022-12-05T08:15:06.086Z,4.50
2022-12-05T08:17:33.240Z,4.50
2022-12-05T08:20:02.714Z,4.50
2022-12-05T08:22:30.495Z,4.50
2022-12-05T08:24:59.463Z,4.50
2022-12-05T08:27:28.580Z,4.60
2022-12-05T08:29:55.389Z,4.50
2022-12-05T08:32:23.564Z,4.60
2022-12-05T08:34:50.478Z,4.50
2022-12-05T08:37:17.135Z,4.50
2022-12-05T08:39:44.000Z,4.50
2022-12-05T08:42:13.059Z,4.50
2022-12-05T08:44:42.693Z,4.50
2022-12-05T08:47:09.374Z,4.60
2022-12-05T08:49:36.142Z,4.60
2022-12-05T08:52:05.769Z,4.60
2022-12-05T08:54:34.732Z,4.50
2022-12-05T08:57:01.423Z,4.50
2022-12-05T08:59:28.711Z,4.50
2022-12-05T09:01:55.649Z,4.50
2022-12-05T09:04:24.631Z,4.50
2022-12-05T09:06:57.366Z,4.60
2022-12-05T09:09:23.924Z,4.60
2022-12-05T09:11:52.660Z,4.60
2022-12-05T09:14:19.329Z,4.70
2022-12-05T09:16:47.071Z,4.70
2022-12-05T09:19:20.157Z,4.70
2022-12-05T09:21:52.940Z,4.70
2022-12-05T09:24:19.582Z,4.80
2022-12-05T09:26:46.662Z,4.80
2022-12-05T09:29:18.369Z,4.80
2022-12-05T09:31:50.868Z,4.80
2022-12-05T09:34:19.308Z,4.90
2022-12-05T09:36:51.106Z,4.90
2022-12-05T09:39:20.193Z,4.90
2022-12-05T09:42:22.630Z,4.90
2022-12-05T09:45:19.647Z,4.90
2022-12-05T09:47:57.325Z,4.90
2022-12-05T09:50:27.715Z,4.90
2022-12-05T09:53:09.077Z,4.90
2022-12-05T09:55:41.591Z,4.90
2022-12-05T09:58:25.257Z,4.90
2022-12-05T10:01:03.869Z,4.90
2022-12-05T10:03:46.742Z,4.90
2022-12-05T10:06:30.812Z,4.90
2022-12-05T10:09:54.740Z,4.90
2022-12-05T10:13:02.251Z,4.90
2022-12-05T10:15:28.848Z,4.90
2022-12-05T10:18:01.062Z,4.90
2022-12-05T10:20:38.520Z,5.00
2022-12-05T10:23:57.450Z,5.00
2022-12-05T10:26:45.768Z,4.90
2022-12-05T10:29:15.382Z,5.00
2022-12-05T10:32:10.483Z,5.00
2022-12-05T10:34:42.355Z,5.00
2022-12-05T10:37:21.213Z,5.00
2022-12-05T10:39:49.973Z,5.00
2022-12-05T10:42:27.436Z,5.00
2022-12-05T10:45:23.101Z,5.00
2022-12-05T10:47:55.765Z,5.00
2022-12-05T10:50:27.175Z,5.00
2022-12-05T10:52:58.832Z,5.00
2022-12-05T10:56:06.541Z,5.10
2022-12-05T10:58:35.304Z,5.10
2022-12-05T11:01:09.377Z,5.20
2022-12-05T11:03:41.816Z,5.30
2022-12-05T11:06:50.476Z,5.30
2022-12-05T11:09:24.226Z,5.40
2022-12-05T11:12:01.153Z,5.40
2022-12-05T11:14:29.127Z,5.50
2022-12-05T11:16:58.373Z,5.50
2022-12-05T11:19:31.445Z,5.50
2022-12-05T11:21:59.521Z,5.60
2022-12-05T11:24:32.127Z,5.60
2022-12-05T11:27:20.111Z,5.70
2022-12-05T11:30:16.805Z,5.70
2022-12-05T11:32:45.844Z,5.80
2022-12-05T11:35:34.267Z,5.80
2022-12-05T11:38:31.963Z,5.90
2022-12-05T11:41:08.962Z,6.00
2022-12-05T11:43:41.504Z,6.10
2022-12-05T11:46:36.005Z,6.30
2022-12-05T11:49:46.684Z,6.50
2022-12-05T11:52:58.268Z,6.60
2022-12-05T11:55:33.022Z,6.60
2022-12-05T11:58:18.148Z,6.60
2022-12-05T12:01:06.039Z,6.60
2022-12-05T12:04:06.894Z,6.60
2022-12-05T12:06:54.107Z,6.60
2022-12-05T12:09:32.218Z,6.60
2022-12-05T12:12:15.664Z,6.50
2022-12-05T12:15:17.943Z,6.50
2022-12-05T12:18:11.438Z,6.50
2022-12-05T12:21:06.022Z,6.50
2022-12-05T12:23:51.404Z,6.50
2022-12-05T12:26:41.990Z,6.50
2022-12-05T12:29:18.211Z,6.50
2022-12-05T12:32:08.608Z,6.50
2022-12-05T12:34:35.730Z,6.50
2022-12-05T12:37:33.000Z,6.60
2022-12-05T12:40:41.900Z,6.60
2022-12-05T12:46:42.628Z,6.70
2022-12-05T12:49:38.096Z,6.80
2022-12-05T12:52:28.013Z,6.80
2022-12-05T12:55:07.301Z,6.80
2022-12-05T12:57:57.742Z,6.80
2022-12-05T13:04:11.651Z,6.70
2022-12-05T13:06:51.974Z,6.70
2022-12-05T13:09:51.870Z,6.70
2022-12-05T13:12:48.015Z,6.70
2022-12-05T13:15:32.755Z,6.70
2022-12-05T13:18:01.359Z,6.70
2022-12-05T13:20:34.174Z,6.80
2022-12-05T13:23:08.703Z,6.80
2022-12-05T13:25:39.978Z,6.80
2022-12-05T13:28:31.750Z,6.80
2022-12-05T13:31:03.995Z,6.80
2022-12-05T13:33:36.410Z,6.70
2022-12-05T13:36:29.144Z,6.70
2022-12-05T13:39:19.717Z,6.70
2022-12-05T13:45:26.966Z,6.70
2022-12-05T13:47:59.868Z,6.70
2022-12-05T13:50:42.455Z,6.70
2022-12-05T13:53:40.531Z,6.60
2022-12-05T13:56:12.940Z,6.60
2022-12-05T13:58:45.332Z,6.60
2022-12-05T14:01:27.948Z,6.60
2022-12-05T14:03:57.672Z,6.60
2022-12-05T14:06:50.735Z,6.60
2022-12-05T14:09:20.756Z,6.60
2022-12-05T14:12:09.695Z,6.60
2022-12-05T14:14:55.150Z,6.60
2022-12-05T14:17:29.278Z,6.50
2022-12-05T14:20:25.997Z,6.50
2022-12-05T14:23:07.280Z,6.50
2022-12-05T14:26:13.843Z,6.50
2022-12-05T14:28:54.840Z,6.50
2022-12-05T14:32:10.062Z,6.50
2022-12-05T14:34:48.931Z,6.50
2022-12-05T14:37:23.897Z,6.50
2022-12-05T14:39:53.249Z,6.50
2022-12-05T14:42:25.733Z,6.50
2022-12-05T14:44:56.681Z,6.50
2022-12-05T14:47:33.348Z,6.50
2022-12-05T14:50:22.128Z,6.50
2022-12-05T14:53:29.505Z,6.40
2022-12-05T14:56:15.599Z,6.40
2022-12-05T14:58:44.926Z,6.40
2022-12-05T15:01:30.538Z,6.40
2022-12-05T15:04:10.826Z,6.30
2022-12-05T15:06:48.426Z,6.30
2022-12-05T15:09:54.246Z,6.30
2022-12-05T15:12:46.076Z,6.30
2022-12-05T15:15:23.742Z,6.20
2022-12-05T15:18:01.398Z,6.20
2022-12-05T15:21:01.694Z,6.20
2022-12-05T15:23:45.682Z,6.20
2022-12-05T15:26:46.863Z,6.20
2022-12-05T15:29:21.497Z,6.20
2022-12-05T15:31:58.337Z,6.20
2022-12-05T15:34:30.642Z,6.10
2022-12-05T15:37:17.924Z,6.10
2022-12-05T15:40:04.133Z,6.10
2022-12-05T15:42:45.057Z,6.10
2022-12-05T15:45:33.424Z,6.10
2022-12-05T15:48:03.859Z,6.10
2022-12-05T15:50:41.360Z,6.00
2022-12-05T15:53:11.881Z,6.10
2022-12-05T15:55:49.886Z,6.10
2022-12-05T15:58:42.684Z,6.10
2022-12-05T16:01:15.052Z,6.10
2022-12-05T16:03:56.038Z,6.00
2022-12-05T16:06:36.270Z,6.00
2022-12-05T16:09:11.545Z,6.00
2022-12-05T16:11:49.297Z,6.00
2022-12-05T16:14:36.933Z,6.00
2022-12-05T16:17:10.873Z,6.00
2022-12-05T16:19:38.551Z,6.00
2022-12-05T16:22:11.923Z,5.90
2022-12-05T16:24:40.198Z,5.90
2022-12-05T16:27:16.601Z,5.90
2022-12-05T16:29:47.427Z,5.90
2022-12-05T16:32:22.396Z,5.90
2022-12-05T16:34:52.354Z,5.90
2022-12-05T16:37:27.932Z,5.90
2022-12-05T16:39:56.475Z,5.90
2022-12-05T16:42:58.097Z,5.90
2022-12-05T16:45:39.314Z,5.90
2022-12-05T16:48:27.141Z,5.90
2022-12-05T16:51:23.405Z,5.90
2022-12-05T16:53:52.221Z,5.90
2022-12-05T16:56:28.936Z,5.90
2022-12-05T16:59:29.859Z,5.90
2022-12-05T17:02:14.273Z,5.80
2022-12-05T17:04:43.037Z,5.80
2022-12-05T17:16:22.448Z,5.70
2022-12-05T17:18:51.355Z,5.70
2022-12-05T17:21:24.578Z,5.70
2022-12-05T17:23:56.565Z,5.70
2022-12-05T17:26:25.816Z,5.70
2022-12-05T17:28:56.767Z,5.60
2022-12-05T17:31:28.112Z,5.60
2022-12-05T17:33:57.090Z,5.60
2022-12-05T17:36:23.918Z,5.60
2022-12-05T17:39:01.174Z,5.60
2022-12-05T17:41:29.207Z,5.50
2022-12-05T17:43:57.077Z,5.50
2022-12-05T17:46:26.819Z,5.50
2022-12-05T17:48:55.116Z,5.50
2022-12-05T17:51:25.207Z,5.50
2022-12-05T17:53:53.375Z,5.40
2022-12-05T17:56:40.493Z,5.40
2022-12-05T17:59:10.656Z,5.40
2022-12-05T18:01:37.691Z,5.30
2022-12-05T18:04:05.744Z,5.30
2022-12-05T18:06:32.889Z,5.20
2022-12-05T18:08:59.655Z,5.30
2022-12-05T18:11:27.267Z,5.20
2022-12-05T18:13:59.442Z,5.20
2022-12-05T18:16:28.980Z,5.20
2022-12-05T18:19:00.548Z,5.20
2022-12-05T18:21:29.962Z,5.20
2022-12-05T18:23:57.163Z,5.20
2022-12-05T18:26:24.564Z,5.20
2022-12-05T18:28:54.323Z,5.20
2022-12-05T18:31:25.474Z,5.20
2022-12-05T18:33:52.599Z,5.30
2022-12-05T18:36:26.068Z,5.30
2022-12-05T18:38:56.169Z,5.30
2022-12-05T18:41:28.298Z,5.30
2022-12-05T18:43:57.451Z,5.30
2022-12-05T18:46:26.652Z,5.30
2022-12-05T18:48:53.922Z,5.30
2022-12-05T18:51:44.111Z,5.30
2022-12-05T18:54:11.436Z,5.30
2022-12-05T18:56:43.661Z,5.30
2022-12-05T18:59:15.611Z,5.30
2022-12-05T19:01:43.014Z,5.20
2022-12-05T19:04:15.970Z,5.20
2022-12-05T19:06:48.956Z,5.20
2022-12-05T19:09:18.384Z,5.20
2022-12-05T19:11:50.507Z,5.20
2022-12-05T19:14:23.542Z,5.20
2022-12-05T19:16:58.056Z,5.10
2022-12-05T19:19:28.671Z,5.10
2022-12-05T19:21:57.998Z,5.00
2022-12-05T19:24:26.961Z,4.90
2022-12-05T19:26:53.640Z,4.90
2022-12-05T19:29:21.836Z,4.90
2022-12-05T19:31:49.778Z,4.90
2022-12-05T19:34:21.871Z,4.80
2022-12-05T19:36:48.646Z,4.70
2022-12-05T19:39:20.609Z,4.60
2022-12-05T19:41:48.531Z,4.60
2022-12-05T19:44:17.888Z,4.50
2022-12-05T19:46:47.686Z,4.50
2022-12-05T19:49:17.636Z,4.30
2022-12-05T19:51:48.753Z,4.30
2022-12-05T19:54:21.360Z,4.10
2022-12-05T19:56:47.987Z,4.10
2022-12-05T19:59:16.114Z,4.00
2022-12-05T20:01:43.942Z,4.00
2022-12-05T20:04:14.756Z,4.10
2022-12-05T20:06:47.713Z,4.00
2022-12-05T20:09:17.908Z,4.10
2022-12-05T20:11:50.956Z,4.20
2022-12-05T20:14:25.051Z,4.20
2022-12-05T20:16:56.239Z,4.20
2022-12-05T20:19:25.743Z,4.20
2022-12-05T20:21:54.641Z,4.30
2022-12-05T20:24:24.221Z,4.20
2022-12-05T20:26:53.984Z,4.20
2022-12-05T20:29:21.039Z,4.30
2022-12-05T20:31:55.847Z,4.30
2022-12-05T20:34:26.111Z,4.30
2022-12-05T20:36:52.862Z,4.30
2022-12-05T20:39:24.000Z,4.30
2022-12-05T20:41:52.856Z,4.30
2022-12-05T20:44:20.411Z,4.30
2022-12-05T20:46:53.906Z,4.30
2022-12-05T20:49:20.702Z,4.40
2022-12-05T20:51:47.796Z,4.40
2022-12-05T20:54:17.512Z,4.40
2022-12-05T20:56:46.751Z,4.40
2022-12-05T20:59:14.119Z,4.50
2022-12-05T21:01:42.257Z,4.50
2022-12-05T21:04:13.886Z,4.50
2022-12-05T21:06:43.079Z,4.50
2022-12-05T21:09:37.110Z,4.40
2022-12-05T21:12:04.162Z,4.40
2022-12-05T21:14:35.362Z,4.40
2022-12-05T21:23:31.104Z,4.30
2022-12-05T21:26:13.911Z,4.20
2022-12-05T21:28:41.808Z,4.20
2022-12-05T21:31:19.593Z,4.30
2022-12-05T21:33:52.770Z,4.20
2022-12-05T21:36:20.541Z,4.20
2022-12-05T21:38:52.360Z,4.30
2022-12-05T21:41:23.305Z,4.30
2022-12-05T21:43:54.915Z,4.30
2022-12-05T21:46:48.579Z,4.40
2022-12-05T21:49:15.365Z,4.40
2022-12-05T21:51:42.190Z,4.40
2022-12-05T21:54:10.217Z,4.40
2022-12-05T21:56:39.432Z,4.40
2022-12-05T21:59:06.310Z,4.40
2022-12-05T22:01:35.770Z,4.50
2022-12-05T22:04:05.152Z,4.50
2022-12-05T22:06:33.052Z,4.50
2022-12-05T22:09:03.388Z,4.50
2022-12-05T22:11:30.420Z,4.50
2022-12-05T22:14:24.480Z,4.50
2022-12-05T22:16:53.977Z,4.50
2022-12-05T22:19:24.849Z,4.50
2022-12-05T22:21:51.609Z,4.50
2022-12-05T22:24:46.932Z,4.50
2022-12-05T22:27:16.267Z,4.50
2022-12-05T22:29:42.992Z,4.40
2022-12-05T22:32:12.932Z,4.40
2022-12-05T22:34:40.631Z,4.40
2022-12-05T22:37:08.243Z,4.40
2022-12-05T22:39:36.770Z,4.40
2022-12-05T22:42:03.731Z,4.40
2022-12-05T22:44:38.745Z,4.40
2022-12-05T22:47:11.794Z,4.30
2022-12-05T22:49:41.716Z,4.30
2022-12-05T22:52:11.759Z,4.30
2022-12-05T22:54:39.753Z,4.30
2022-12-05T22:57:06.592Z,4.20
2022-12-05T22:59:39.515Z,4.10
2022-12-05T23:02:07.005Z,4.10
2022-12-05T23:04:36.082Z,4.00
2022-12-05T23:07:05.931Z,4.00
2022-12-05T23:09:35.962Z,4.00
2022-12-05T23:12:10.043Z,3.90
2022-12-05T23:14:37.458Z,3.90
2022-12-05T23:17:04.160Z,3.80
2022-12-05T23:19:31.953Z,3.80
2022-12-05T23:21:58.652Z,3.80
2022-12-05T23:24:25.571Z,3.70
2022-12-05T23:26:53.682Z,3.70
2022-12-05T23:29:22.677Z,3.70
2022-12-05T23:31:49.418Z,3.60
2022-12-05T23:34:16.396Z,3.60
2022-12-05T23:36:43.269Z,3.60
2022-12-05T23:39:14.811Z,3.60
2022-12-05T23:41:43.454Z,3.60
2022-12-05T23:44:23.900Z,3.60
2022-12-05T23:46:50.542Z,3.60
2022-12-05T23:49:17.361Z,3.60
2022-12-05T23:51:46.781Z,3.60
2022-12-05T23:54:19.011Z,3.70
2022-12-05T23:56:52.237Z,3.70
2022-12-05T23:59:22.009Z,3.60
